METAR v bližini

 

LJLJ - Ljubljana/Brnik, Slovenia
Oddaljenost od postaje: W 41km
Podatki zajeti: 14/10/2019 10:00
Jasno
Jasno
 Veter iz smeri spremenljiv
Veter: spremenljiv 2 km/h
Temperatura: 13°C
Rosišče: 11°C
Vlažnost: 88%
Tlak: 1022 hPa
Stanje: Jasno
Vidljivost: večja od 10 km
2019/10/14 08:00 LJLJ 140800Z VRB01KT CAVOK 13/11 Q1022 NOSIG
LJMB - Maribor, Slovenia
Oddaljenost od postaje: NE 63km
Podatki zajeti: 14/10/2019 10:00
Jasno
Jasno
 Veter iz smeri SSE
Veter: SSE 4 km/h
Temperatura: 14°C
Rosišče: 12°C
Vlažnost: 88%
Tlak: 1020 hPa
Stanje: Jasno
Vidljivost: večja od 10 km
2019/10/14 08:00 LJMB 140800Z 15002KT CAVOK 14/12 Q1020
 
LJPZ - Portoroz, Slovenia
Oddaljenost od postaje: SW 130km
Podatki zajeti: 14/10/2019 10:00
Pretežno oblačno
Pretežno oblačno
 Veter iz smeri SE
Veter: SE 6 km/h
Temperatura: 17°C
Rosišče: 14°C
Vlažnost: 83%
Tlak: 1023 hPa
Oblačnost: Pretežno oblačno
Vidljivost: 10 km
Podrobnosti o oblakih: Pretežno oblačno 1097 m
2019/10/14 08:00 LJPZ 140800Z 13003KT 9999 BKN036 17/14 Q1023
LJCE - Cerklje, Slovenia
Oddaljenost od postaje: ESE 49km
Podatki zajeti: 14/10/2019 10:00
Jasno
Jasno
 Veter iz smeri W
Veter: W 7 km/h
Temperatura: 16°C
Rosišče: 13°C
Vlažnost: 83%
Tlak: 1021 hPa
Stanje: Jasno
Vidljivost: večja od 10 km
2019/10/14 08:00 LJCE 140800Z 27004KT 240V320 CAVOK 16/13 Q1021 RMK BLU
 
LDZA - Zagreb/Pleso, Croatia
Oddaljenost od postaje: ESE 96km
Podatki zajeti: 14/10/2019 10:30
Jasno
Jasno
 Veter iz smeri spremenljiv
Veter: spremenljiv 2 km/h
Temperatura: 17°C
Rosišče: 15°C
Vlažnost: 88%
Tlak: 1021 hPa
Stanje: Jasno
Vidljivost: večja od 10 km
2019/10/14 08:30 LDZA 140830Z VRB01KT CAVOK 17/15 Q1021 NOSIG
LDRI - Rijeka/Omisalj, Croatia
Oddaljenost od postaje: SSW 109km
Podatki zajeti: 14/10/2019 10:30
Delno oblačno
Delno oblačno
 Veter iz smeri spremenljiv
Veter: spremenljiv 4 km/h
Temperatura: 17°C
Rosišče: 17°C
Vlažnost: 100%
Tlak: 1023 hPa
Oblačnost: Delno oblačno
Vidljivost: 10 km
Podrobnosti o oblakih: Rahlo oblačno 305 m
Delno oblačno 1006 m
2019/10/14 08:30 LDRI 140830Z VRB02KT 9999 FEW010 SCT033 17/17 Q1023
 
LDPL - Pula, Croatia
Oddaljenost od postaje: SSW 164km
Podatki zajeti: 14/10/2019 10:30
Jasno
Jasno
 Veter iz smeri spremenljiv
Veter: spremenljiv 2 km/h
Temperatura: 18°C
Rosišče: 14°C
Vlažnost: 78%
Tlak: 1023 hPa
Stanje: Jasno
Vidljivost: večja od 10 km
2019/10/14 08:30 LDPL 140830Z VRB01KT CAVOK 18/14 Q1023 NOSIG
LOWK - Klagenfurt(Civ/M, Austria
Oddaljenost od postaje: NW 76km
Podatki zajeti: 14/10/2019 10:20
Delno oblačno
Delno oblačno
 Veter iz smeri WNW
Veter: WNW 6 km/h
Temperatura: 14°C
Rosišče: 10°C
Vlažnost: 77%
Tlak: 1022 hPa
Oblačnost: Delno oblačno
Vidljivost: 10 km
Podrobnosti o oblakih: Rahlo oblačno 61 m
Delno oblačno 7620 m
2019/10/14 08:20 LOWK 140820Z 29003KT 250V320 9999 FEW002 SCT250 14/10 Q1022 NOSIG
 
LOWG - Graz (mil/Civ), Austria
Oddaljenost od postaje: NNE 100km
Podatki zajeti: 14/10/2019 10:20
Jasno
Jasno
 Veter iz smeri SSE
Veter: SSE 6 km/h
Temperatura: 13°C
Rosišče: 10°C
Vlažnost: 82%
Tlak: 1020 hPa
Stanje: Jasno
Vidljivost: večja od 10 km
2019/10/14 08:20 LOWG 140820Z 16003KT 120V200 CAVOK 13/10 Q1020 NOSIG
LOAN - Wr.neustadt East, Austria
Oddaljenost od postaje: NNE 212km
Podatki zajeti: 14/10/2019 10:00
Megla, Oblačno
Megla, Oblačno
 Veter iz smeri spremenljiv
Veter: spremenljiv 4 km/h
Stanje: Megla
Oblačnost: Oblačno
Vidljivost: 0 km
Podrobnosti o oblakih: Oblačno 30 m
2019/10/14 08:00 LOAN 140800Z VRB02KT 0400 FG VV001
 
LIPQ - Ronchi Legionari, Italy
Oddaljenost od postaje: SW 35km
Podatki zajeti: 14/10/2019 10:20
Meglica, Delno oblačno
Meglica, Delno oblačno
 Veter iz smeri spremenljiv
Veter: spremenljiv 4 km/h
Temperatura: 17°C
Rosišče: 15°C
Vlažnost: 88%
Tlak: 1023 hPa
Stanje: Meglica
Oblačnost: Delno oblačno
Vidljivost: 5 km
Podrobnosti o oblakih: Delno oblačno 610 m
2019/10/14 08:20 LIPQ 140820Z VRB02KT 5000 BR SCT020 17/15 Q1023
LIVT - Trieste, Italy
Oddaljenost od postaje: WSW 109km
Podatki zajeti: 14/10/2019 09:55

 
2019/10/14 07:55 LIVT 140755Z ///05KT 6000 NSC 18/16 Q1022 RMK BKN SCT080 SCT200 QUK 0 QUL 0 VIS MAR 6 KM VIS MIN 6000
 
LIVO - Tarvisio, Italy
Oddaljenost od postaje: NNW 49km
Podatki zajeti: 14/10/2019 09:55
Jasno
Jasno
 Veter iz smeri W
Veter: W 13 km/h
Temperatura: 12°C
Rosišče: 10°C
Vlažnost: 88%
Tlak: 1022 hPa
Stanje: Jasno
Vidljivost: večja od 10 km
2019/10/14 07:55 LIVO 140755Z 27007KT CAVOK 12/10 Q1022 RMK FEW FEW080 VIS MIN 9999
LIPZ - Venezia/Tessera, Italy
Oddaljenost od postaje: WSW 217km
Podatki zajeti: 14/10/2019 10:20
Megla, Pretežno oblačno
Megla, Pretežno oblačno
 Veter iz smeri spremenljiv
Veter: spremenljiv 4 km/h
Temperatura: 14°C
Rosišče: 14°C
Vlažnost: 100%
Tlak: 1022 hPa
Stanje: Megla
Oblačnost: Pretežno oblačno
Vidljivost: 0 km
Podrobnosti o oblakih: Pretežno oblačno 30 m
2019/10/14 08:20 LIPZ 140820Z VRB02KT 0200 R04R/0900U FG BKN001 14/14 Q1022 BECMG 0400 FG
 
LHSM - Balaton, Hungary
Oddaljenost od postaje: ENE 177km
Podatki zajeti: 14/10/2019 10:15
Jasno
Jasno
 Veter iz smeri SSE
Veter: SSE 7 km/h
Temperatura: 14°C
Rosišče: 14°C
Vlažnost: 100%
Tlak: 1021 hPa
Oblačnost: Jasno
Vidljivost: 7 km
2019/10/14 08:15 LHSM 140815Z AUTO 15004KT 110V180 7000 NCD 14/14 Q1021 NOSIG